Terminal Aerodrome Forecast
Issued by NWS Cleveland, OH

Home | Current Version | Previous Version | Graphics & Text | Print | Product List | Glossary On
Versions: 1 2 3 4 5 6 7 8 9 10 11 12 13 14 15 16 17 18 19
000
FTUS41 KCLE 282300
TAFCAK
TAF
KCAK 282322Z 0100/0124 10005KT P6SM BKN250
     FM010400 12004KT P6SM OVC050
     FM010600 14005KT 4SM -SN SCT015 OVC025
      TEMPO 0106/0108 2SM -SN OVC015
     FM010800 14005KT 1 1/2SM -SN OVC010
     FM011000 17005KT 3/4SM -SN OVC008
     FM011800 23006KT 1 1/2SM -SN OVC010
     FM012200 24005KT 3SM -SN OVC015=

USA.gov is the U.S. government's official web portal to all federal, state and local government web resources and services.